sensor_id;sensor_type;location;lat;lon;timestamp;temperature;humidity
39657;DHT22;25337;51.478;7.510;2024-03-23T00:52:12;6.10;99.90
39657;DHT22;25337;51.478;7.510;2024-03-23T00:54:38;6.10;99.90
39657;DHT22;25337;51.478;7.510;2024-03-23T00:57:04;6.10;99.90
39657;DHT22;25337;51.478;7.510;2024-03-23T00:59:29;6.10;99.90
39657;DHT22;25337;51.478;7.510;2024-03-23T01:01:56;6.10;99.90
39657;DHT22;25337;51.478;7.510;2024-03-23T01:04:22;6.10;99.90
39657;DHT22;25337;51.478;7.510;2024-03-23T01:06:48;6.00;99.90
39657;DHT22;25337;51.478;7.510;2024-03-23T01:09:13;6.00;99.90
39657;DHT22;25337;51.478;7.510;2024-03-23T01:11:39;5.90;99.90
39657;DHT22;25337;51.478;7.510;2024-03-23T01:14:05;5.80;99.90
39657;DHT22;25337;51.478;7.510;2024-03-23T01:16:31;5.80;99.90
39657;DHT22;25337;51.478;7.510;2024-03-23T01:18:57;5.70;99.90
39657;DHT22;25337;51.478;7.510;2024-03-23T01:21:23;5.80;99.90
39657;DHT22;25337;51.478;7.510;2024-03-23T01:23:49;5.80;99.90
39657;DHT22;25337;51.478;7.510;2024-03-23T01:26:14;5.70;99.90
39657;DHT22;25337;51.478;7.510;2024-03-23T01:28:40;5.70;99.90
39657;DHT22;25337;51.478;7.510;2024-03-23T01:31:06;5.70;99.90
39657;DHT22;25337;51.478;7.510;2024-03-23T01:33:31;5.70;99.90
39657;DHT22;25337;51.478;7.510;2024-03-23T01:35:57;5.60;99.90
39657;DHT22;25337;51.478;7.510;2024-03-23T01:38:22;5.80;99.90
39657;DHT22;25337;51.478;7.510;2024-03-23T01:40:48;5.80;99.90
39657;DHT22;25337;51.478;7.510;2024-03-23T01:43:14;5.70;99.90
39657;DHT22;25337;51.478;7.510;2024-03-23T01:45:39;5.70;99.90
39657;DHT22;25337;51.478;7.510;2024-03-23T01:48:05;5.70;99.90
39657;DHT22;25337;51.478;7.510;2024-03-23T01:50:31;5.80;99.90
39657;DHT22;25337;51.478;7.510;2024-03-23T01:53:02;5.70;99.90
39657;DHT22;25337;51.478;7.510;2024-03-23T01:55:28;5.70;99.90
39657;DHT22;25337;51.478;7.510;2024-03-23T01:57:56;5.70;99.90
39657;DHT22;25337;51.478;7.510;2024-03-23T02:00:23;5.60;99.90
39657;DHT22;25337;51.478;7.510;2024-03-23T02:02:48;5.50;99.90
39657;DHT22;25337;51.478;7.510;2024-03-23T02:05:14;5.60;99.90
39657;DHT22;25337;51.478;7.510;2024-03-23T02:07:41;5.50;99.90
39657;DHT22;25337;51.478;7.510;2024-03-23T02:10:07;5.50;99.90
39657;DHT22;25337;51.478;7.510;2024-03-23T02:12:35;5.50;99.90
39657;DHT22;25337;51.478;7.510;2024-03-23T02:15:01;5.40;99.90
39657;DHT22;25337;51.478;7.510;2024-03-23T02:17:27;5.40;99.90
39657;DHT22;25337;51.478;7.510;2024-03-23T02:19:53;5.40;99.90
39657;DHT22;25337;51.478;7.510;2024-03-23T02:22:18;5.40;99.90
39657;DHT22;25337;51.478;7.510;2024-03-23T02:24:44;5.60;99.90
39657;DHT22;25337;51.478;7.510;2024-03-23T02:27:10;5.30;99.90
39657;DHT22;25337;51.478;7.510;2024-03-23T02:29:35;5.20;99.90
39657;DHT22;25337;51.478;7.510;2024-03-23T02:32:01;5.20;99.90
39657;DHT22;25337;51.478;7.510;2024-03-23T02:34:27;5.10;99.90
39657;DHT22;25337;51.478;7.510;2024-03-23T02:36:52;5.10;99.90
39657;DHT22;25337;51.478;7.510;2024-03-23T02:39:18;5.20;99.90
39657;DHT22;25337;51.478;7.510;2024-03-23T02:41:43;5.10;99.90
39657;DHT22;25337;51.478;7.510;2024-03-23T02:44:09;5.10;99.90
39657;DHT22;25337;51.478;7.510;2024-03-23T02:46:37;5.10;99.90
39657;DHT22;25337;51.478;7.510;2024-03-23T02:49:03;5.10;99.90
39657;DHT22;25337;51.478;7.510;2024-03-23T02:51:30;5.10;99.90
39657;DHT22;25337;51.478;7.510;2024-03-23T02:53:55;5.10;99.90
39657;DHT22;25337;51.478;7.510;2024-03-23T02:56:21;5.10;99.90
39657;DHT22;25337;51.478;7.510;2024-03-23T02:58:47;5.10;99.90
39657;DHT22;25337;51.478;7.510;2024-03-23T03:01:13;5.10;99.90
39657;DHT22;25337;51.478;7.510;2024-03-23T03:03:38;5.10;99.90
39657;DHT22;25337;51.478;7.510;2024-03-23T03:06:04;5.10;99.90
39657;DHT22;25337;51.478;7.510;2024-03-23T03:08:30;5.00;99.90
39657;DHT22;25337;51.478;7.510;2024-03-23T03:10:55;5.00;99.90
39657;DHT22;25337;51.478;7.510;2024-03-23T03:13:21;5.00;99.90
39657;DHT22;25337;51.478;7.510;2024-03-23T03:15:47;5.00;99.90
39657;DHT22;25337;51.478;7.510;2024-03-23T03:18:13;5.00;99.90
39657;DHT22;25337;51.478;7.510;2024-03-23T03:20:39;5.00;99.90
39657;DHT22;25337;51.478;7.510;2024-03-23T03:23:05;5.00;99.90
39657;DHT22;25337;51.478;7.510;2024-03-23T03:25:31;5.00;99.90
39657;DHT22;25337;51.478;7.510;2024-03-23T03:27:56;5.00;99.90
39657;DHT22;25337;51.478;7.510;2024-03-23T03:30:22;5.00;99.90
39657;DHT22;25337;51.478;7.510;2024-03-23T03:32:47;4.90;99.90
39657;DHT22;25337;51.478;7.510;2024-03-23T03:35:13;4.90;99.90
39657;DHT22;25337;51.478;7.510;2024-03-23T03:37:39;4.80;99.90
39657;DHT22;25337;51.478;7.510;2024-03-23T03:40:05;4.80;99.90
39657;DHT22;25337;51.478;7.510;2024-03-23T03:42:34;4.80;99.90
39657;DHT22;25337;51.478;7.510;2024-03-23T03:45:00;4.80;99.90
39657;DHT22;25337;51.478;7.510;2024-03-23T03:47:25;4.80;99.90
39657;DHT22;25337;51.478;7.510;2024-03-23T03:49:51;4.80;99.90
39657;DHT22;25337;51.478;7.510;2024-03-23T03:52:17;4.70;99.90
39657;DHT22;25337;51.478;7.510;2024-03-23T03:54:42;4.70;99.90
39657;DHT22;25337;51.478;7.510;2024-03-23T03:57:08;4.80;99.90
39657;DHT22;25337;51.478;7.510;2024-03-23T03:59:34;4.90;99.90
39657;DHT22;25337;51.478;7.510;2024-03-23T04:01:59;4.90;99.90
39657;DHT22;25337;51.478;7.510;2024-03-23T04:04:25;4.90;99.90
39657;DHT22;25337;51.478;7.510;2024-03-23T04:07:00;4.90;99.90
39657;DHT22;25337;51.478;7.510;2024-03-23T04:09:26;4.90;99.90
39657;DHT22;25337;51.478;7.510;2024-03-23T04:11:52;4.90;99.90
39657;DHT22;25337;51.478;7.510;2024-03-23T04:14:18;4.90;99.90
39657;DHT22;25337;51.478;7.510;2024-03-23T04:16:43;4.90;99.90
39657;DHT22;25337;51.478;7.510;2024-03-23T04:19:09;4.90;99.90
39657;DHT22;25337;51.478;7.510;2024-03-23T04:21:36;4.80;99.90
39657;DHT22;25337;51.478;7.510;2024-03-23T04:24:01;4.80;99.90
39657;DHT22;25337;51.478;7.510;2024-03-23T04:26:27;4.70;99.90
39657;DHT22;25337;51.478;7.510;2024-03-23T04:28:53;4.70;99.90
39657;DHT22;25337;51.478;7.510;2024-03-23T04:31:19;4.80;99.90
39657;DHT22;25337;51.478;7.510;2024-03-23T04:33:44;4.80;99.90
39657;DHT22;25337;51.478;7.510;2024-03-23T04:36:10;4.80;99.90
39657;DHT22;25337;51.478;7.510;2024-03-23T04:38:36;4.80;99.90
39657;DHT22;25337;51.478;7.510;2024-03-23T04:41:01;4.80;99.90
39657;DHT22;25337;51.478;7.510;2024-03-23T04:43:27;4.80;99.90
39657;DHT22;25337;51.478;7.510;2024-03-23T04:45:53;4.80;99.90
39657;DHT22;25337;51.478;7.510;2024-03-23T04:48:23;4.80;99.90
39657;DHT22;25337;51.478;7.510;2024-03-23T04:50:49;4.80;99.90
39657;DHT22;25337;51.478;7.510;2024-03-23T04:53:16;4.80;99.90
39657;DHT22;25337;51.478;7.510;2024-03-23T04:55:42;4.80;99.90
39657;DHT22;25337;51.478;7.510;2024-03-23T04:58:08;4.80;99.90
39657;DHT22;25337;51.478;7.510;2024-03-23T05:00:34;4.70;99.90
39657;DHT22;25337;51.478;7.510;2024-03-23T05:03:00;4.70;99.90
39657;DHT22;25337;51.478;7.510;2024-03-23T05:05:25;4.70;99.90
39657;DHT22;25337;51.478;7.510;2024-03-23T05:07:51;4.70;99.90
39657;DHT22;25337;51.478;7.510;2024-03-23T05:10:16;4.80;99.90
39657;DHT22;25337;51.478;7.510;2024-03-23T05:12:42;4.80;99.90
39657;DHT22;25337;51.478;7.510;2024-03-23T05:15:08;4.70;99.90
39657;DHT22;25337;51.478;7.510;2024-03-23T05:17:34;4.70;99.90
39657;DHT22;25337;51.478;7.510;2024-03-23T05:20:00;4.70;99.90
39657;DHT22;25337;51.478;7.510;2024-03-23T05:22:25;4.70;99.90
39657;DHT22;25337;51.478;7.510;2024-03-23T05:24:53;4.70;99.90
39657;DHT22;25337;51.478;7.510;2024-03-23T05:27:18;4.70;99.90
39657;DHT22;25337;51.478;7.510;2024-03-23T05:29:44;4.80;99.90
39657;DHT22;25337;51.478;7.510;2024-03-23T05:32:10;4.80;99.90
39657;DHT22;25337;51.478;7.510;2024-03-23T05:34:35;4.70;99.90
39657;DHT22;25337;51.478;7.510;2024-03-23T05:37:01;4.70;99.90
39657;DHT22;25337;51.478;7.510;2024-03-23T05:39:26;4.70;99.90
39657;DHT22;25337;51.478;7.510;2024-03-23T05:41:52;4.70;99.90
39657;DHT22;25337;51.478;7.510;2024-03-23T05:44:18;4.80;99.90
39657;DHT22;25337;51.478;7.510;2024-03-23T05:46:44;4.80;99.90
39657;DHT22;25337;51.478;7.510;2024-03-23T05:49:14;4.70;99.90
39657;DHT22;25337;51.478;7.510;2024-03-23T05:51:39;4.80;99.90
39657;DHT22;25337;51.478;7.510;2024-03-23T05:54:05;4.70;99.90
39657;DHT22;25337;51.478;7.510;2024-03-23T05:56:31;4.70;99.90
39657;DHT22;25337;51.478;7.510;2024-03-23T05:58:57;4.70;99.90
39657;DHT22;25337;51.478;7.510;2024-03-23T06:01:22;4.80;99.90
39657;DHT22;25337;51.478;7.510;2024-03-23T06:03:48;4.70;99.90
39657;DHT22;25337;51.478;7.510;2024-03-23T06:06:14;4.70;99.90
39657;DHT22;25337;51.478;7.510;2024-03-23T06:08:39;4.70;99.90
39657;DHT22;25337;51.478;7.510;2024-03-23T06:11:05;4.70;99.90
39657;DHT22;25337;51.478;7.510;2024-03-23T06:13:34;4.70;99.90
39657;DHT22;25337;51.478;7.510;2024-03-23T06:16:03;4.80;99.90
39657;DHT22;25337;51.478;7.510;2024-03-23T06:18:29;4.70;99.90
39657;DHT22;25337;51.478;7.510;2024-03-23T06:20:54;4.70;99.90
39657;DHT22;25337;51.478;7.510;2024-03-23T06:23:20;4.80;99.90
39657;DHT22;25337;51.478;7.510;2024-03-23T06:25:46;4.80;99.90
39657;DHT22;25337;51.478;7.510;2024-03-23T06:28:12;4.80;99.90
39657;DHT22;25337;51.478;7.510;2024-03-23T06:30:38;4.80;99.90
39657;DHT22;25337;51.478;7.510;2024-03-23T06:33:04;4.80;99.90
39657;DHT22;25337;51.478;7.510;2024-03-23T06:35:31;4.90;99.90
39657;DHT22;25337;51.478;7.510;2024-03-23T06:37:56;4.90;99.90
39657;DHT22;25337;51.478;7.510;2024-03-23T06:40:23;5.00;99.90
39657;DHT22;25337;51.478;7.510;2024-03-23T06:42:49;5.00;99.90
39657;DHT22;25337;51.478;7.510;2024-03-23T06:45:17;5.00;99.90
39657;DHT22;25337;51.478;7.510;2024-03-23T06:47:44;5.00;99.90
39657;DHT22;25337;51.478;7.510;2024-03-23T06:50:10;5.00;99.90
39657;DHT22;25337;51.478;7.510;2024-03-23T06:52:36;5.00;99.90
39657;DHT22;25337;51.478;7.510;2024-03-23T06:55:02;5.00;99.90
39657;DHT22;25337;51.478;7.510;2024-03-23T06:57:29;5.10;99.90
39657;DHT22;25337;51.478;7.510;2024-03-23T06:59:55;5.10;99.90
39657;DHT22;25337;51.478;7.510;2024-03-23T07:02:21;5.10;99.90
39657;DHT22;25337;51.478;7.510;2024-03-23T07:04:46;5.20;99.90
39657;DHT22;25337;51.478;7.510;2024-03-23T07:07:12;5.20;99.90
39657;DHT22;25337;51.478;7.510;2024-03-23T07:09:38;5.30;99.90
39657;DHT22;25337;51.478;7.510;2024-03-23T07:12:03;5.30;99.90
39657;DHT22;25337;51.478;7.510;2024-03-23T07:14:30;5.40;99.90
39657;DHT22;25337;51.478;7.510;2024-03-23T07:16:55;5.40;99.90
39657;DHT22;25337;51.478;7.510;2024-03-23T07:19:22;5.40;99.90
39657;DHT22;25337;51.478;7.510;2024-03-23T07:21:47;5.40;99.90
39657;DHT22;25337;51.478;7.510;2024-03-23T07:24:13;5.40;99.90
39657;DHT22;25337;51.478;7.510;2024-03-23T07:26:39;5.50;99.90
39657;DHT22;25337;51.478;7.510;2024-03-23T07:29:06;5.60;99.90
39657;DHT22;25337;51.478;7.510;2024-03-23T07:31:31;5.70;99.90
39657;DHT22;25337;51.478;7.510;2024-03-23T07:33:57;5.80;99.90
39657;DHT22;25337;51.478;7.510;2024-03-23T07:36:23;5.70;99.90
39657;DHT22;25337;51.478;7.510;2024-03-23T07:38:48;5.70;99.90
39657;DHT22;25337;51.478;7.510;2024-03-23T07:41:16;5.80;99.90
39657;DHT22;25337;51.478;7.510;2024-03-23T07:43:45;5.70;99.90
39657;DHT22;25337;51.478;7.510;2024-03-23T07:46:11;5.90;99.90
39657;DHT22;25337;51.478;7.510;2024-03-23T07:54:31;6.00;99.90
39657;DHT22;25337;51.478;7.510;2024-03-23T07:56:56;6.10;99.90
39657;DHT22;25337;51.478;7.510;2024-03-23T07:59:22;6.10;99.90
39657;DHT22;25337;51.478;7.510;2024-03-23T08:01:47;6.20;99.90
39657;DHT22;25337;51.478;7.510;2024-03-23T08:04:13;6.30;99.90
39657;DHT22;25337;51.478;7.510;2024-03-23T08:06:38;6.40;99.90
39657;DHT22;25337;51.478;7.510;2024-03-23T08:09:04;6.60;99.90
39657;DHT22;25337;51.478;7.510;2024-03-23T08:11:31;6.60;99.90
39657;DHT22;25337;51.478;7.510;2024-03-23T08:13:57;6.60;99.90
39657;DHT22;25337;51.478;7.510;2024-03-23T08:16:23;6.60;99.90
39657;DHT22;25337;51.478;7.510;2024-03-23T08:18:52;6.70;99.90
39657;DHT22;25337;51.478;7.510;2024-03-23T08:21:18;6.60;99.90
39657;DHT22;25337;51.478;7.510;2024-03-23T08:23:44;6.60;99.90
39657;DHT22;25337;51.478;7.510;2024-03-23T08:26:11;6.70;99.90
39657;DHT22;25337;51.478;7.510;2024-03-23T08:28:38;6.80;99.90
39657;DHT22;25337;51.478;7.510;2024-03-23T08:31:06;7.00;99.90
39657;DHT22;25337;51.478;7.510;2024-03-23T08:33:32;7.10;99.90
39657;DHT22;25337;51.478;7.510;2024-03-23T08:36:05;7.20;99.90
39657;DHT22;25337;51.478;7.510;2024-03-23T08:38:31;7.30;99.90
39657;DHT22;25337;51.478;7.510;2024-03-23T08:41:05;7.60;99.90
39657;DHT22;25337;51.478;7.510;2024-03-23T08:43:32;8.00;99.90
39657;DHT22;25337;51.478;7.510;2024-03-23T08:46:15;8.20;99.90
39657;DHT22;25337;51.478;7.510;2024-03-23T08:48:43;8.60;99.90
39657;DHT22;25337;51.478;7.510;2024-03-23T08:51:10;8.70;99.90
39657;DHT22;25337;51.478;7.510;2024-03-23T08:53:36;8.70;99.90
39657;DHT22;25337;51.478;7.510;2024-03-23T08:56:03;8.40;99.90
39657;DHT22;25337;51.478;7.510;2024-03-23T08:58:31;8.00;99.90
39657;DHT22;25337;51.478;7.510;2024-03-23T09:01:09;7.80;99.90
39657;DHT22;25337;51.478;7.510;2024-03-23T09:03:36;8.00;99.90
39657;DHT22;25337;51.478;7.510;2024-03-23T09:06:09;8.00;99.90
39657;DHT22;25337;51.478;7.510;2024-03-23T09:08:35;7.90;99.90
39657;DHT22;25337;51.478;7.510;2024-03-23T09:11:10;7.90;99.90
39657;DHT22;25337;51.478;7.510;2024-03-23T09:13:37;7.80;99.90
39657;DHT22;25337;51.478;7.510;2024-03-23T09:16:03;7.70;99.90
39657;DHT22;25337;51.478;7.510;2024-03-23T09:18:32;7.60;99.90
39657;DHT22;25337;51.478;7.510;2024-03-23T09:20:58;7.70;99.90
39657;DHT22;25337;51.478;7.510;2024-03-23T09:23:24;7.90;99.90
39657;DHT22;25337;51.478;7.510;2024-03-23T09:25:49;8.10;99.90
39657;DHT22;25337;51.478;7.510;2024-03-23T09:28:15;8.40;99.90
39657;DHT22;25337;51.478;7.510;2024-03-23T09:30:41;8.50;99.90
39657;DHT22;25337;51.478;7.510;2024-03-23T09:33:13;8.50;99.90
39657;DHT22;25337;51.478;7.510;2024-03-23T09:35:40;8.10;99.90
39657;DHT22;25337;51.478;7.510;2024-03-23T09:38:06;7.80;99.90
39657;DHT22;25337;51.478;7.510;2024-03-23T09:40:41;7.50;99.90
39657;DHT22;25337;51.478;7.510;2024-03-23T09:43:10;7.40;99.90
39657;DHT22;25337;51.478;7.510;2024-03-23T09:45:40;7.20;99.90
39657;DHT22;25337;51.478;7.510;2024-03-23T09:48:08;7.00;99.90
39657;DHT22;25337;51.478;7.510;2024-03-23T09:50:34;6.80;99.90
39657;DHT22;25337;51.478;7.510;2024-03-23T09:53:01;6.80;99.90
39657;DHT22;25337;51.478;7.510;2024-03-23T09:55:27;6.60;99.90
39657;DHT22;25337;51.478;7.510;2024-03-23T09:57:52;6.70;99.90
39657;DHT22;25337;51.478;7.510;2024-03-23T10:00:18;6.80;99.90
39657;DHT22;25337;51.478;7.510;2024-03-23T10:02:45;7.10;99.90
39657;DHT22;25337;51.478;7.510;2024-03-23T10:05:21;7.50;99.90
39657;DHT22;25337;51.478;7.510;2024-03-23T10:07:52;8.10;99.90
39657;DHT22;25337;51.478;7.510;2024-03-23T10:10:18;8.60;99.90
39657;DHT22;25337;51.478;7.510;2024-03-23T10:12:48;9.10;99.90
39657;DHT22;25337;51.478;7.510;2024-03-23T10:15:21;9.80;99.90
39657;DHT22;25337;51.478;7.510;2024-03-23T10:17:47;10.10;99.90
39657;DHT22;25337;51.478;7.510;2024-03-23T10:20:13;9.60;99.90
39657;DHT22;25337;51.478;7.510;2024-03-23T10:22:39;9.60;99.90
39657;DHT22;25337;51.478;7.510;2024-03-23T10:25:09;9.90;99.90
39657;DHT22;25337;51.478;7.510;2024-03-23T10:27:34;10.40;99.90
39657;DHT22;25337;51.478;7.510;2024-03-23T10:30:11;10.40;99.90
39657;DHT22;25337;51.478;7.510;2024-03-23T10:32:38;9.80;99.90
39657;DHT22;25337;51.478;7.510;2024-03-23T10:35:24;9.00;99.90
39657;DHT22;25337;51.478;7.510;2024-03-23T10:37:51;8.70;99.90
39657;DHT22;25337;51.478;7.510;2024-03-23T10:40:18;8.90;99.90
39657;DHT22;25337;51.478;7.510;2024-03-23T10:42:44;8.70;99.90
39657;DHT22;25337;51.478;7.510;2024-03-23T10:45:10;8.90;99.90
39657;DHT22;25337;51.478;7.510;2024-03-23T10:47:36;9.40;99.90
39657;DHT22;25337;51.478;7.510;2024-03-23T10:50:05;9.40;99.90
39657;DHT22;25337;51.478;7.510;2024-03-23T10:52:33;9.60;99.90
39657;DHT22;25337;51.478;7.510;2024-03-23T10:54:59;10.00;99.90
39657;DHT22;25337;51.478;7.510;2024-03-23T11:00:15;10.80;99.90
39657;DHT22;25337;51.478;7.510;2024-03-23T11:02:41;10.70;99.90
39657;DHT22;25337;51.478;7.510;2024-03-23T11:05:31;10.10;99.90
39657;DHT22;25337;51.478;7.510;2024-03-23T11:07:57;9.70;99.90
39657;DHT22;25337;51.478;7.510;2024-03-23T11:10:30;9.70;99.90
39657;DHT22;25337;51.478;7.510;2024-03-23T11:12:56;10.20;99.90
39657;DHT22;25337;51.478;7.510;2024-03-23T11:15:22;10.80;99.90
39657;DHT22;25337;51.478;7.510;2024-03-23T11:18:07;11.10;99.90
39657;DHT22;25337;51.478;7.510;2024-03-23T11:20:37;10.90;99.90
39657;DHT22;25337;51.478;7.510;2024-03-23T11:23:04;10.10;99.90
39657;DHT22;25337;51.478;7.510;2024-03-23T11:25:30;8.80;99.90
39657;DHT22;25337;51.478;7.510;2024-03-23T11:27:57;7.30;99.90
39657;DHT22;25337;51.478;7.510;2024-03-23T11:30:27;6.30;99.90
39657;DHT22;25337;51.478;7.510;2024-03-23T11:32:55;5.20;99.90
39657;DHT22;25337;51.478;7.510;2024-03-23T11:35:32;4.40;99.90
39657;DHT22;25337;51.478;7.510;2024-03-23T11:38:14;4.10;99.90
39657;DHT22;25337;51.478;7.510;2024-03-23T11:40:42;4.10;99.90
39657;DHT22;25337;51.478;7.510;2024-03-23T11:43:10;4.10;99.90
39657;DHT22;25337;51.478;7.510;2024-03-23T11:45:42;4.30;99.90
39657;DHT22;25337;51.478;7.510;2024-03-23T11:48:09;4.50;99.90
39657;DHT22;25337;51.478;7.510;2024-03-23T11:50:37;5.00;99.90
39657;DHT22;25337;51.478;7.510;2024-03-23T11:53:17;6.10;99.90
39657;DHT22;25337;51.478;7.510;2024-03-23T11:55:51;7.10;99.90
39657;DHT22;25337;51.478;7.510;2024-03-23T11:58:18;8.20;99.90
39657;DHT22;25337;51.478;7.510;2024-03-23T12:00:57;9.10;99.90
39657;DHT22;25337;51.478;7.510;2024-03-23T12:03:23;9.90;99.90
39657;DHT22;25337;51.478;7.510;2024-03-23T12:05:53;11.00;99.90
39657;DHT22;25337;51.478;7.510;2024-03-23T12:08:28;11.90;99.90
39657;DHT22;25337;51.478;7.510;2024-03-23T12:11:17;12.40;99.90
39657;DHT22;25337;51.478;7.510;2024-03-23T12:13:44;11.80;99.90
39657;DHT22;25337;51.478;7.510;2024-03-23T12:18:39;11.60;99.90
39657;DHT22;25337;51.478;7.510;2024-03-23T12:21:05;11.50;99.90
39657;DHT22;25337;51.478;7.510;2024-03-23T12:23:31;11.20;99.90
39657;DHT22;25337;51.478;7.510;2024-03-23T12:25:58;11.30;99.90
39657;DHT22;25337;51.478;7.510;2024-03-23T12:28:23;11.30;99.90
39657;DHT22;25337;51.478;7.510;2024-03-23T12:30:49;11.80;99.90
39657;DHT22;25337;51.478;7.510;2024-03-23T12:33:15;11.40;99.90
39657;DHT22;25337;51.478;7.510;2024-03-23T12:35:40;10.40;99.90
39657;DHT22;25337;51.478;7.510;2024-03-23T12:38:06;10.00;99.90
39657;DHT22;25337;51.478;7.510;2024-03-23T12:40:32;9.50;99.90
39657;DHT22;25337;51.478;7.510;2024-03-23T12:42:58;9.40;99.90
39657;DHT22;25337;51.478;7.510;2024-03-23T12:45:23;9.10;99.90
39657;DHT22;25337;51.478;7.510;2024-03-23T12:47:49;9.20;99.90
39657;DHT22;25337;51.478;7.510;2024-03-23T12:50:15;9.90;99.90
39657;DHT22;25337;51.478;7.510;2024-03-23T12:52:40;10.00;99.90
39657;DHT22;25337;51.478;7.510;2024-03-23T12:55:07;9.60;99.90
39657;DHT22;25337;51.478;7.510;2024-03-23T12:57:32;9.00;99.90
39657;DHT22;25337;51.478;7.510;2024-03-23T12:59:59;8.70;99.90
39657;DHT22;25337;51.478;7.510;2024-03-23T13:02:24;8.40;99.90
39657;DHT22;25337;51.478;7.510;2024-03-23T13:04:51;8.20;99.90
39657;DHT22;25337;51.478;7.510;2024-03-23T13:07:18;8.20;99.90
39657;DHT22;25337;51.478;7.510;2024-03-23T13:09:44;9.00;99.90
39657;DHT22;25337;51.478;7.510;2024-03-23T13:12:10;9.80;99.90
39657;DHT22;25337;51.478;7.510;2024-03-23T13:14:37;10.40;99.90
39657;DHT22;25337;51.478;7.510;2024-03-23T13:17:03;10.80;99.90
39657;DHT22;25337;51.478;7.510;2024-03-23T13:19:29;11.30;99.90
39657;DHT22;25337;51.478;7.510;2024-03-23T13:21:57;11.60;99.90
39657;DHT22;25337;51.478;7.510;2024-03-23T13:24:27;11.70;99.90
39657;DHT22;25337;51.478;7.510;2024-03-23T13:26:53;12.10;99.70
39657;DHT22;25337;51.478;7.510;2024-03-23T13:29:20;12.20;97.60
39657;DHT22;25337;51.478;7.510;2024-03-23T13:31:46;11.40;99.90
39657;DHT22;25337;51.478;7.510;2024-03-23T13:34:13;10.90;99.90
39657;DHT22;25337;51.478;7.510;2024-03-23T13:36:40;10.60;99.90
39657;DHT22;25337;51.478;7.510;2024-03-23T13:39:06;10.20;99.90
39657;DHT22;25337;51.478;7.510;2024-03-23T13:41:40;9.60;99.90
39657;DHT22;25337;51.478;7.510;2024-03-23T13:44:07;9.10;99.90
39657;DHT22;25337;51.478;7.510;2024-03-23T13:46:33;8.40;99.90
39657;DHT22;25337;51.478;7.510;2024-03-23T13:48:59;7.80;99.90
39657;DHT22;25337;51.478;7.510;2024-03-23T13:51:26;7.30;99.90
39657;DHT22;25337;51.478;7.510;2024-03-23T13:53:55;6.70;99.90
39657;DHT22;25337;51.478;7.510;2024-03-23T13:56:30;6.40;99.90
39657;DHT22;25337;51.478;7.510;2024-03-23T13:58:56;6.40;99.90
39657;DHT22;25337;51.478;7.510;2024-03-23T14:01:22;7.20;99.90
39657;DHT22;25337;51.478;7.510;2024-03-23T14:03:49;8.10;99.90
39657;DHT22;25337;51.478;7.510;2024-03-23T14:06:15;8.30;99.90
39657;DHT22;25337;51.478;7.510;2024-03-23T14:08:41;8.30;99.90
39657;DHT22;25337;51.478;7.510;2024-03-23T14:11:10;8.80;99.90
39657;DHT22;25337;51.478;7.510;2024-03-23T14:13:36;9.00;99.90
39657;DHT22;25337;51.478;7.510;2024-03-23T14:16:02;8.70;99.90
39657;DHT22;25337;51.478;7.510;2024-03-23T14:18:29;8.20;99.90
39657;DHT22;25337;51.478;7.510;2024-03-23T14:21:00;8.00;99.90
39657;DHT22;25337;51.478;7.510;2024-03-23T14:23:26;7.80;99.90
39657;DHT22;25337;51.478;7.510;2024-03-23T14:25:56;8.00;99.90
39657;DHT22;25337;51.478;7.510;2024-03-23T14:28:22;8.00;99.90
39657;DHT22;25337;51.478;7.510;2024-03-23T14:30:49;7.90;99.90
39657;DHT22;25337;51.478;7.510;2024-03-23T14:33:16;7.90;99.90
39657;DHT22;25337;51.478;7.510;2024-03-23T14:35:41;7.80;99.90
39657;DHT22;25337;51.478;7.510;2024-03-23T14:38:07;7.90;99.90
39657;DHT22;25337;51.478;7.510;2024-03-23T14:40:33;8.00;99.90
39657;DHT22;25337;51.478;7.510;2024-03-23T14:42:59;8.30;99.90
39657;DHT22;25337;51.478;7.510;2024-03-23T14:45:25;8.40;99.90
39657;DHT22;25337;51.478;7.510;2024-03-23T14:47:51;8.50;99.90
39657;DHT22;25337;51.478;7.510;2024-03-23T14:50:17;8.40;99.90
39657;DHT22;25337;51.478;7.510;2024-03-23T14:52:46;8.40;99.90
39657;DHT22;25337;51.478;7.510;2024-03-23T14:55:12;8.40;99.90
39657;DHT22;25337;51.478;7.510;2024-03-23T14:57:38;8.40;99.90
39657;DHT22;25337;51.478;7.510;2024-03-23T15:00:10;8.40;99.90
39657;DHT22;25337;51.478;7.510;2024-03-23T15:02:39;8.40;99.90
39657;DHT22;25337;51.478;7.510;2024-03-23T15:05:06;8.40;99.90
39657;DHT22;25337;51.478;7.510;2024-03-23T15:07:36;8.20;99.90
39657;DHT22;25337;51.478;7.510;2024-03-23T15:10:04;8.10;99.90
39657;DHT22;25337;51.478;7.510;2024-03-23T15:12:30;8.80;99.90
39657;DHT22;25337;51.478;7.510;2024-03-23T15:14:58;9.50;99.90
39657;DHT22;25337;51.478;7.510;2024-03-23T15:17:24;10.10;99.90
39657;DHT22;25337;51.478;7.510;2024-03-23T15:19:49;10.40;99.10
39657;DHT22;25337;51.478;7.510;2024-03-23T15:22:15;10.50;99.80
39657;DHT22;25337;51.478;7.510;2024-03-23T15:24:40;10.50;99.90
39657;DHT22;25337;51.478;7.510;2024-03-23T15:27:06;10.70;99.20
39657;DHT22;25337;51.478;7.510;2024-03-23T15:29:34;10.80;99.90
39657;DHT22;25337;51.478;7.510;2024-03-23T15:32:02;10.50;97.00
39657;DHT22;25337;51.478;7.510;2024-03-23T15:34:28;10.30;99.70
39657;DHT22;25337;51.478;7.510;2024-03-23T15:36:54;10.20;99.20
39657;DHT22;25337;51.478;7.510;2024-03-23T15:39:20;9.80;99.40
39657;DHT22;25337;51.478;7.510;2024-03-23T15:41:47;9.30;99.90
39657;DHT22;25337;51.478;7.510;2024-03-23T15:44:13;8.90;99.90
39657;DHT22;25337;51.478;7.510;2024-03-23T15:46:39;8.70;99.90
39657;DHT22;25337;51.478;7.510;2024-03-23T15:49:05;8.50;99.90
39657;DHT22;25337;51.478;7.510;2024-03-23T15:51:31;8.30;99.90
39657;DHT22;25337;51.478;7.510;2024-03-23T15:54:02;8.20;99.90
39657;DHT22;25337;51.478;7.510;2024-03-23T15:56:31;8.20;99.90
39657;DHT22;25337;51.478;7.510;2024-03-23T15:58:56;8.10;99.90
39657;DHT22;25337;51.478;7.510;2024-03-23T16:01:30;8.10;99.90
39657;DHT22;25337;51.478;7.510;2024-03-23T16:03:58;8.10;99.90
39657;DHT22;25337;51.478;7.510;2024-03-23T16:06:24;8.10;99.90
39657;DHT22;25337;51.478;7.510;2024-03-23T16:08:50;8.10;99.90
39657;DHT22;25337;51.478;7.510;2024-03-23T16:11:15;8.10;99.90
39657;DHT22;25337;51.478;7.510;2024-03-23T16:13:41;8.20;99.90
39657;DHT22;25337;51.478;7.510;2024-03-23T16:16:08;8.20;99.90
39657;DHT22;25337;51.478;7.510;2024-03-23T16:18:36;8.20;99.90
39657;DHT22;25337;51.478;7.510;2024-03-23T16:21:03;8.10;99.90
39657;DHT22;25337;51.478;7.510;2024-03-23T16:23:31;8.00;99.90
39657;DHT22;25337;51.478;7.510;2024-03-23T16:25:57;8.00;99.90
39657;DHT22;25337;51.478;7.510;2024-03-23T16:28:27;8.00;99.90
39657;DHT22;25337;51.478;7.510;2024-03-23T16:33:27;7.70;99.90
39657;DHT22;25337;51.478;7.510;2024-03-23T16:36:07;7.70;99.90
39657;DHT22;25337;51.478;7.510;2024-03-23T16:38:34;7.60;99.90
39657;DHT22;25337;51.478;7.510;2024-03-23T16:41:02;7.50;99.90
39657;DHT22;25337;51.478;7.510;2024-03-23T16:43:30;7.50;99.90
39657;DHT22;25337;51.478;7.510;2024-03-23T16:48:23;7.50;99.90
39657;DHT22;25337;51.478;7.510;2024-03-23T16:50:50;7.60;99.90